Time;durP1;ratioP1;P1;durP2;ratioP2;P2;SDS_P1;SDS_P2;PMS_P1;PMS_P2;Temp;Humidity;BMP_temperature;BMP_pressure;BME280_temperature;BME280_humidity;BME280_pressure;Samples;Min_cycle;Max_cycle;Signal;HPM_P1;HPM_P2
2021/12/20 00:01:49;;;;;;;40.13;14.15;;;;;;;-149.78;100.00;50702.22;5117394;27;20420;-73
2021/12/20 00:04:15;;;;;;;51.42;14.88;;;;;;;-149.78;100.00;50688.53;5135647;27;20070;-73
2021/12/20 00:06:40;;;;;;;42.95;13.73;;;;;;;-149.78;100.00;50713.97;5083123;27;20070;-73
2021/12/20 00:09:06;;;;;;;40.22;13.07;;;;;;;-149.78;100.00;50686.59;5064539;27;20046;-73
2021/12/20 00:11:32;;;;;;;42.97;12.77;;;;;;;-149.78;100.00;50698.31;5096731;28;20081;-73
2021/12/20 00:13:57;;;;;;;41.47;14.18;;;;;;;-149.78;100.00;50690.50;5123913;27;20023;-73
2021/12/20 00:16:23;;;;;;;47.25;13.98;;;;;;;-149.78;100.00;50655.28;5100034;27;20386;-73
2021/12/20 00:18:48;;;;;;;41.75;13.80;;;;;;;-149.78;100.00;50702.22;5117178;27;20035;-73
2021/12/20 00:21:15;;;;;;;42.03;14.27;;;;;;;-149.78;100.00;50694.41;5135308;27;20104;-73
2021/12/20 00:23:40;;;;;;;45.00;13.52;;;;;;;-149.78;100.00;50676.81;5116821;27;20813;-73
2021/12/20 00:26:06;;;;;;;45.63;14.23;;;;;;;-149.78;100.00;50647.47;5096438;28;20092;-73
2021/12/20 00:28:32;;;;;;;43.45;14.40;;;;;;;-149.78;100.00;50706.16;5128171;27;20031;-73
2021/12/20 00:30:57;;;;;;;41.10;13.43;;;;;;;-149.78;100.00;50674.84;5135105;27;20035;-73
2021/12/20 00:33:23;;;;;;;37.58;12.98;;;;;;;-149.78;100.00;50708.09;5096048;28;20510;-73
2021/12/20 00:35:49;;;;;;;38.08;13.02;;;;;;;-149.78;100.00;50682.66;5083482;28;20051;-73
2021/12/20 00:40:59;;;;;;;37.25;12.18;;;;;;;-149.78;100.00;50690.50;5119482;27;20039;-73
2021/12/20 00:43:25;;;;;;;45.42;14.40;;;;;;;-149.78;100.00;50674.84;5134996;27;20023;-73
2021/12/20 00:45:51;;;;;;;42.25;14.00;;;;;;;-149.78;100.00;50702.22;5134842;27;20434;-74
2021/12/20 00:48:16;;;;;;;40.08;13.18;;;;;;;-149.78;100.00;50674.84;5098740;27;20054;-74
2021/12/20 00:50:43;;;;;;;42.10;13.30;;;;;;;-149.78;100.00;50698.31;5100642;27;20058;-73
2021/12/20 00:53:10;;;;;;;48.42;13.93;;;;;;;-149.78;100.00;50690.50;5099440;27;20035;-73
2021/12/20 00:55:36;;;;;;;43.60;14.35;;;;;;;-149.78;100.00;50710.06;5105791;27;20050;-73
2021/12/20 00:58:03;;;;;;;36.78;12.77;;;;;;;-149.78;100.00;50682.66;5134734;27;20026;-73
2021/12/20 01:00:34;;;;;;;43.25;13.98;;;;;;;-149.78;100.00;50659.19;5134673;27;20027;-73
2021/12/20 01:03:02;;;;;;;41.10;14.10;;;;;;;-149.78;100.00;50665.06;5134517;27;20031;-74
2021/12/20 01:05:29;;;;;;;41.75;13.77;;;;;;;-149.78;100.00;50698.31;5116244;27;20413;-73
2021/12/20 01:07:59;;;;;;;46.15;14.32;;;;;;;-149.78;100.00;50713.97;5134401;27;20114;-73
2021/12/20 01:10:25;;;;;;;39.35;13.07;;;;;;;-149.78;100.00;50678.75;5134495;27;20073;-73
2021/12/20 01:12:53;;;;;;;43.28;11.85;;;;;;;-149.78;100.00;50670.94;5099235;27;20031;-73
2021/12/20 01:15:24;;;;;;;39.45;13.63;;;;;;;-149.78;100.00;50647.47;5138883;27;20541;-73
2021/12/20 01:17:50;;;;;;;37.08;12.98;;;;;;;-149.78;100.00;50706.16;5134321;27;20031;-73
2021/12/20 01:20:16;;;;;;;46.42;13.52;;;;;;;-149.78;100.00;50667.03;5134330;27;20031;-73
2021/12/20 01:22:45;;;;;;;34.50;12.20;;;;;;;-149.78;100.00;50684.63;5116306;27;20114;-74
2021/12/20 01:25:11;;;;;;;37.60;13.40;;;;;;;-149.78;100.00;50690.50;5116064;27;20039;-73
2021/12/20 01:27:37;;;;;;;37.00;13.18;;;;;;;-149.78;100.00;50678.75;5082402;27;20110;-73
2021/12/20 01:30:05;;;;;;;38.83;12.55;;;;;;;-149.78;100.00;50702.22;5115799;28;20063;-73
2021/12/20 01:32:32;;;;;;;36.63;12.18;;;;;;;-149.78;100.00;50670.94;5134097;27;20034;-74
2021/12/20 01:34:58;;;;;;;36.30;13.48;;;;;;;-149.78;100.00;50672.91;5095272;28;20052;-74
2021/12/20 01:37:23;;;;;;;40.88;12.93;;;;;;;-149.78;100.00;50667.03;5112525;28;20393;-73
2021/12/20 01:39:49;;;;;;;37.17;12.10;;;;;;;-149.78;100.00;50713.97;5113644;28;20028;-73
2021/12/20 01:42:22;;;;;;;36.75;12.52;;;;;;;-149.78;100.00;50704.19;5112382;28;20375;-74
2021/12/20 01:44:49;;;;;;;41.15;14.10;;;;;;;-149.78;100.00;50690.50;5095366;28;20053;-73
2021/12/20 01:47:16;;;;;;;38.60;11.75;;;;;;;-149.78;100.00;50694.41;5110798;28;20134;-74
2021/12/20 01:49:55;;;;;;;47.35;13.55;;;;;;;-149.78;100.00;50678.75;5094245;28;20388;-73
2021/12/20 01:52:24;;;;;;;39.28;13.77;;;;;;;-149.78;100.00;50678.75;5113422;28;20031;-73
2021/12/20 01:54:50;;;;;;;35.85;12.80;;;;;;;-149.78;100.00;50674.84;5078765;28;20437;-73
2021/12/20 01:57:16;;;;;;;45.22;12.30;;;;;;;-149.78;100.00;50651.38;5095397;28;20062;-74
2021/12/20 01:59:42;;;;;;;33.30;11.75;;;;;;;-149.78;100.00;50667.03;5114907;28;20057;-74
2021/12/20 02:02:08;;;;;;;38.53;12.80;;;;;;;-149.78;100.00;50667.03;5102556;28;20027;-73
2021/12/20 02:04:44;;;;;;;38.05;12.90;;;;;;;-149.78;100.00;50698.31;5110815;28;20024;-74
2021/12/20 02:07:30;;;;;;;40.50;12.65;;;;;;;-149.78;100.00;50667.03;5099074;28;20168;-73
2021/12/20 02:09:56;;;;;;;43.17;13.55;;;;;;;-149.78;100.00;50704.19;5116032;28;20122;-74
2021/12/20 02:12:22;;;;;;;33.45;12.63;;;;;;;-149.78;100.00;50667.03;5117460;28;20157;-73
2021/12/20 02:14:47;;;;;;;36.40;13.70;;;;;;;-149.78;100.00;50674.84;5109134;28;20028;-73
2021/12/20 02:17:14;;;;;;;39.78;13.18;;;;;;;-149.78;100.00;50678.75;5117317;27;20040;-73
2021/12/20 02:19:39;;;;;;;34.20;12.13;;;;;;;-149.78;100.00;50686.59;5115888;28;20034;-73
2021/12/20 02:22:06;;;;;;;33.78;11.52;;;;;;;-149.78;100.00;50682.66;5116947;28;20374;-73
2021/12/20 02:24:31;;;;;;;38.80;13.68;;;;;;;-149.78;100.00;50667.03;5115663;28;20127;-73
2021/12/20 02:26:59;;;;;;;40.40;13.27;;;;;;;-149.78;100.00;50694.41;5115815;28;20043;-73
2021/12/20 02:29:40;;;;;;;41.58;12.50;;;;;;;-149.78;100.00;50667.03;5116441;28;20073;-73
2021/12/20 02:37:35;;;;;;;39.40;13.27;;;;;;;-149.78;100.00;50674.84;5115600;28;20032;-73
2021/12/20 02:40:00;;;;;;;43.65;13.73;;;;;;;-149.78;100.00;50698.31;5098571;28;20047;-73
2021/12/20 02:42:33;;;;;;;37.10;12.27;;;;;;;-149.78;100.00;50604.44;5116844;28;20035;-74
2021/12/20 02:45:12;;;;;;;47.22;13.75;;;;;;;-149.78;100.00;50686.59;5099235;28;20400;-73
2021/12/20 02:47:43;;;;;;;39.35;13.38;;;;;;;-149.78;100.00;50635.72;5116730;28;20031;-73
2021/12/20 02:50:10;;;;;;;44.37;14.60;;;;;;;-149.78;100.00;50678.75;5115271;28;20036;-73
2021/12/20 02:52:36;;;;;;;38.72;13.32;;;;;;;-149.78;100.00;50667.03;5114143;28;20543;-73
2021/12/20 02:55:03;;;;;;;46.67;14.25;;;;;;;-149.78;100.00;50682.66;5114807;28;20028;-73
2021/12/20 02:57:29;;;;;;;36.67;13.23;;;;;;;-149.78;100.00;50690.50;5115094;28;20024;-73
2021/12/20 02:59:55;;;;;;;42.15;13.55;;;;;;;-149.78;100.00;50702.22;5098249;28;20610;-73
2021/12/20 03:02:22;;;;;;;35.50;12.93;;;;;;;-149.78;100.00;50672.91;5111826;28;20032;-73
2021/12/20 03:04:49;;;;;;;38.38;12.65;;;;;;;-149.78;100.00;50678.75;5098460;28;20375;-73
2021/12/20 03:07:21;;;;;;;38.53;12.35;;;;;;;-149.78;100.00;50663.13;5097809;28;20039;-73
2021/12/20 03:09:52;;;;;;;;;;;;;;;-149.78;100.00;50698.31;5115296;28;20131;-73
2021/12/20 03:12:18;;;;;;;46.78;13.68;;;;;;;-149.78;100.00;50682.66;5115603;28;20398;-73
2021/12/20 03:14:47;;;;;;;44.15;13.52;;;;;;;-149.78;100.00;50659.19;5114967;28;20040;-73
2021/12/20 03:17:15;;;;;;;43.35;13.85;;;;;;;-149.78;100.00;50631.81;5114800;28;20118;-73
2021/12/20 03:19:40;;;;;;;41.78;13.60;;;;;;;-149.78;100.00;50686.59;5114820;28;20036;-73
2021/12/20 03:22:07;;;;;;;38.72;13.60;;;;;;;-149.78;100.00;50663.13;5114688;28;20027;-73
2021/12/20 03:24:36;;;;;;;38.10;12.57;;;;;;;-149.78;100.00;50686.59;5114661;28;20143;-73
2021/12/20 03:27:06;;;;;;;39.17;13.05;;;;;;;-149.78;100.00;50694.41;5098197;28;20035;-73
2021/12/20 03:29:32;;;;;;;41.72;13.38;;;;;;;-149.78;100.00;50682.66;5080571;28;20498;-73
2021/12/20 03:31:58;;;;;;;37.55;13.05;;;;;;;-149.78;100.00;50686.59;5114458;28;20421;-73
2021/12/20 03:34:23;;;;;;;36.55;13.18;;;;;;;-149.78;100.00;50674.84;5114299;28;20044;-73
2021/12/20 03:36:49;;;;;;;43.05;13.35;;;;;;;-149.78;100.00;50682.66;5093904;28;20077;-73
2021/12/20 03:39:15;;;;;;;40.67;13.52;;;;;;;-149.78;100.00;50702.22;5113640;28;20043;-73
2021/12/20 03:41:42;;;;;;;39.72;13.25;;;;;;;-149.78;100.00;50690.50;5121695;27;20073;-73
2021/12/20 03:44:08;;;;;;;38.95;13.73;;;;;;;-149.78;100.00;50717.88;5114086;28;20059;-73
2021/12/20 03:46:35;;;;;;;41.80;13.70;;;;;;;-149.78;100.00;50678.75;5115380;28;20122;-73
2021/12/20 03:49:02;;;;;;;39.53;13.02;;;;;;;-149.78;100.00;50710.06;5114312;28;20047;-73
2021/12/20 03:51:27;;;;;;;44.83;12.65;;;;;;;-149.78;100.00;50682.66;5115333;28;20028;-73
2021/12/20 03:53:53;;;;;;;47.45;13.88;;;;;;;-149.78;100.00;50686.59;5114077;28;20039;-73
2021/12/20 03:56:19;;;;;;;53.90;14.60;;;;;;;-149.78;100.00;50710.06;5114098;28;20036;-73
2021/12/20 03:58:45;;;;;;;45.33;14.30;;;;;;;-149.78;100.00;50670.94;5093595;28;20412;-73
2021/12/20 04:01:12;;;;;;;39.30;13.75;;;;;;;-149.78;100.00;50678.75;5078665;28;20039;-73
2021/12/20 04:03:39;;;;;;;40.17;13.52;;;;;;;-149.78;100.00;50690.50;5113748;28;20485;-73
2021/12/20 04:06:08;;;;;;;43.35;13.10;;;;;;;-149.78;100.00;50704.19;5113649;28;20042;-73
2021/12/20 04:08:34;;;;;;;46.30;14.32;;;;;;;-149.78;100.00;50710.06;5113673;28;20061;-73
2021/12/20 04:11:01;;;;;;;46.85;13.15;;;;;;;-149.78;100.00;50631.81;5079629;28;20052;-73
2021/12/20 04:13:30;;;;;;;45.15;13.38;;;;;;;-149.78;100.00;50710.06;5113550;28;20637;-73
2021/12/20 04:15:57;;;;;;;47.30;14.73;;;;;;;-149.78;100.00;50686.59;5096659;28;20058;-73
2021/12/20 04:18:29;;;;;;;41.93;14.40;;;;;;;-149.78;100.00;50684.63;5093492;27;20043;-73
2021/12/20 04:21:01;;;;;;;47.22;13.80;;;;;;;-149.78;100.00;50706.16;5111805;28;20156;-73
2021/12/20 04:23:28;;;;;;;40.28;14.45;;;;;;;-149.78;100.00;50682.66;5075988;28;20490;-73
2021/12/20 04:25:53;;;;;;;43.58;14.88;;;;;;;-149.78;100.00;50704.19;5096406;28;20031;-73
2021/12/20 04:28:19;;;;;;;42.45;13.68;;;;;;;-149.78;100.00;50686.59;5114703;28;20036;-73
2021/12/20 04:30:45;;;;;;;40.30;13.32;;;;;;;-149.78;100.00;50698.31;5096309;28;20047;-73
2021/12/20 04:33:11;;;;;;;45.40;13.88;;;;;;;-149.78;100.00;50690.50;5114342;27;20119;-73
2021/12/20 04:35:36;;;;;;;52.90;14.93;;;;;;;-149.78;100.00;50688.53;5082833;27;20034;-73
2021/12/20 04:38:04;;;;;;;39.22;13.70;;;;;;;-149.78;100.00;50651.38;5082419;27;20027;-73
2021/12/20 04:40:30;;;;;;;48.25;15.00;;;;;;;-149.78;100.00;50690.50;5116610;27;20031;-73
2021/12/20 04:42:59;;;;;;;48.83;14.63;;;;;;;-149.78;100.00;50667.03;5082622;27;20038;-73
2021/12/20 04:45:27;;;;;;;44.83;13.68;;;;;;;-149.78;100.00;50667.03;5134847;27;20027;-73
2021/12/20 04:47:54;;;;;;;46.03;14.68;;;;;;;-149.78;100.00;50682.66;5099501;27;20084;-73
2021/12/20 04:50:21;;;;;;;46.10;13.60;;;;;;;-149.78;100.00;50686.59;5134465;27;20023;-73
2021/12/20 04:52:47;;;;;;;51.78;15.40;;;;;;;-149.78;100.00;50690.50;5099741;27;20121;-72
2021/12/20 04:55:14;;;;;;;53.38;15.60;;;;;;;-149.78;100.00;50678.75;5134756;27;20027;-73
2021/12/20 04:57:41;;;;;;;47.83;14.32;;;;;;;-149.78;100.00;50688.53;5116359;27;20362;-73
2021/12/20 05:00:10;;;;;;;50.55;15.57;;;;;;;-149.78;100.00;50682.66;5099274;27;20046;-73
2021/12/20 05:02:37;;;;;;;48.85;14.68;;;;;;;-149.78;100.00;50688.53;5134534;27;20463;-73
2021/12/20 05:05:03;;;;;;;38.35;13.05;;;;;;;-149.78;100.00;50713.97;5065547;27;20472;-73
2021/12/20 05:07:29;;;;;;;43.67;14.38;;;;;;;-149.78;100.00;50682.66;5134395;27;20083;-73
2021/12/20 05:10:01;;;;;;;50.03;14.95;;;;;;;-149.78;100.00;50702.22;5134298;27;20038;-73
2021/12/20 05:12:27;;;;;;;;;;;;;;;-149.78;100.00;50694.41;5135035;27;20039;-73
2021/12/20 05:14:53;;;;;;;45.83;14.70;;;;;;;-149.78;100.00;50682.66;5134392;27;19911;-73
2021/12/20 05:17:18;;;;;;;52.45;16.35;;;;;;;-149.78;100.00;50686.59;5099060;27;20437;-73
2021/12/20 05:19:44;;;;;;;55.10;15.98;;;;;;;-149.78;100.00;50710.06;5116078;27;20500;-72
2021/12/20 05:22:11;;;;;;;56.80;16.02;;;;;;;-149.78;100.00;50702.22;5099044;28;20024;-72
2021/12/20 05:24:38;;;;;;;83.93;16.35;;;;;;;-149.78;100.00;50667.03;5116049;27;20486;-73
2021/12/20 05:27:04;;;;;;;56.15;16.27;;;;;;;-149.78;100.00;50682.66;5134263;27;20031;-72
2021/12/20 05:29:31;;;;;;;59.83;16.25;;;;;;;-149.78;100.00;50678.75;5116091;28;20027;-72
2021/12/20 05:31:57;;;;;;;49.00;16.30;;;;;;;-149.78;100.00;50663.13;5134318;28;20031;-72
2021/12/20 05:34:23;;;;;;;56.92;17.02;;;;;;;-149.78;100.00;50729.63;5101178;27;20047;-72
2021/12/20 05:36:48;;;;;;;56.58;15.70;;;;;;;-149.78;100.00;50698.31;5106018;27;20031;-72
2021/12/20 05:39:14;;;;;;;55.03;17.10;;;;;;;-149.78;100.00;50676.81;5124125;27;20467;-72
2021/12/20 05:41:40;;;;;;;48.67;15.75;;;;;;;-149.78;100.00;50674.84;5110013;27;20516;-72
2021/12/20 05:44:05;;;;;;;61.72;16.42;;;;;;;-149.78;100.00;50725.69;5109983;27;20366;-73
2021/12/20 05:46:31;;;;;;;88.40;17.55;;;;;;;-149.78;100.00;50698.31;5126105;27;20031;-72
2021/12/20 05:48:57;;;;;;;69.45;17.55;;;;;;;-149.78;100.00;50698.31;5143904;27;20027;-72
2021/12/20 05:51:23;;;;;;;70.95;17.30;;;;;;;-149.78;100.00;50717.88;5138842;27;20035;-72
2021/12/20 05:53:49;;;;;;;76.45;18.52;;;;;;;-149.78;100.00;50682.66;5105608;27;20076;-73
2021/12/20 05:56:15;;;;;;;59.15;16.58;;;;;;;-149.78;100.00;50682.66;5105352;27;20385;-73
2021/12/20 05:58:40;;;;;;;123.38;18.10;;;;;;;-149.78;100.00;50682.66;5105429;27;20035;-72
2021/12/20 06:01:06;;;;;;;71.95;18.08;;;;;;;-149.78;100.00;50706.16;5103399;27;20051;-73
2021/12/20 06:03:32;;;;;;;65.07;16.92;;;;;;;-149.78;100.00;50712.00;5122315;27;20031;-73
2021/12/20 06:05:58;;;;;;;58.55;16.90;;;;;;;-149.78;100.00;50653.34;5122413;27;20031;-72
2021/12/20 06:08:24;;;;;;;112.45;19.00;;;;;;;-149.78;100.00;50670.94;5140714;27;20031;-73
2021/12/20 06:10:50;;;;;;;79.47;18.27;;;;;;;-149.78;100.00;50670.94;5122562;27;20061;-73
2021/12/20 06:13:15;;;;;;;70.72;19.30;;;;;;;-149.78;100.00;50682.66;5122265;27;20050;-73
2021/12/20 06:15:41;;;;;;;143.60;21.15;;;;;;;-149.78;100.00;50659.19;5140845;27;20034;-72
2021/12/20 06:18:06;;;;;;;236.50;22.42;;;;;;;-149.78;100.00;50684.63;5122354;27;20035;-72
2021/12/20 06:20:32;;;;;;;118.53;19.08;;;;;;;-149.78;100.00;50674.84;5122431;27;20019;-73
2021/12/20 06:22:58;;;;;;;177.10;22.63;;;;;;;-149.78;100.00;50710.06;5085293;27;20032;-72
2021/12/20 06:25:26;;;;;;;179.60;22.92;;;;;;;-149.78;100.00;50670.94;5122262;27;20370;-72
2021/12/20 06:27:52;;;;;;;76.95;17.23;;;;;;;-149.78;100.00;50717.88;5140700;27;20035;-73
2021/12/20 06:30:18;;;;;;;108.93;18.70;;;;;;;-149.78;100.00;50678.75;5124224;27;20035;-72
2021/12/20 06:32:44;;;;;;;77.38;17.17;;;;;;;-149.78;100.00;50702.22;5133273;27;20113;-73
2021/12/20 06:35:13;;;;;;;75.35;15.57;;;;;;;-149.78;100.00;50688.53;5134093;27;20039;-72
2021/12/20 06:37:40;;;;;;;61.10;16.67;;;;;;;-149.78;100.00;50702.22;5143258;27;20033;-73
2021/12/20 06:40:06;;;;;;;61.92;15.18;;;;;;;-149.78;100.00;50682.66;5131666;27;20039;-73
2021/12/20 06:42:32;;;;;;;61.83;15.82;;;;;;;-149.78;100.00;50704.19;5135292;27;20034;-72
2021/12/20 06:44:58;;;;;;;137.05;18.13;;;;;;;-149.78;100.00;50704.19;5136489;27;20438;-73
2021/12/20 06:47:24;;;;;;;68.75;15.32;;;;;;;-149.78;100.00;50667.03;5110007;27;20059;-73
2021/12/20 06:49:50;;;;;;;68.65;16.73;;;;;;;-149.78;100.00;50702.22;5097858;27;20430;-72
2021/12/20 06:52:16;;;;;;;91.10;17.30;;;;;;;-149.78;100.00;50639.66;5100917;27;20098;-73
2021/12/20 06:54:42;;;;;;;133.85;18.05;;;;;;;-149.78;100.00;50649.44;5115672;27;20473;-72
2021/12/20 06:57:07;;;;;;;79.45;16.75;;;;;;;-149.78;100.00;50670.94;5115499;27;20171;-72
2021/12/20 06:59:33;;;;;;;62.45;16.02;;;;;;;-149.78;100.00;50672.91;5108726;27;20034;-72
2021/12/20 07:01:59;;;;;;;78.03;16.20;;;;;;;-149.78;100.00;50710.06;5148146;27;20023;-73
2021/12/20 07:04:24;;;;;;;64.32;15.27;;;;;;;-149.78;100.00;50698.31;5127100;27;20046;-72
2021/12/20 07:06:52;;;;;;;66.15;16.42;;;;;;;-149.78;100.00;50663.13;5107599;27;20137;-72
2021/12/20 07:09:17;;;;;;;67.07;16.30;;;;;;;-149.78;100.00;50674.84;5096133;28;20043;-74
2021/12/20 07:11:44;;;;;;;72.40;16.90;;;;;;;-149.78;100.00;50698.31;5142199;27;20031;-74
2021/12/20 07:14:10;;;;;;;62.92;15.52;;;;;;;-149.78;100.00;50690.50;5110973;27;20534;-74
2021/12/20 07:16:36;;;;;;;58.47;15.18;;;;;;;-149.78;100.00;50678.75;5116191;27;20035;-72
2021/12/20 07:19:04;;;;;;;54.70;13.32;;;;;;;-149.78;100.00;50694.41;5110123;27;20362;-73
2021/12/20 07:21:30;;;;;;;51.45;13.25;;;;;;;-149.78;100.00;50668.97;5135578;27;20035;-73
2021/12/20 07:23:56;;;;;;;47.95;12.23;;;;;;;-149.78;100.00;50678.75;5113899;27;20023;-73
2021/12/20 07:26:22;;;;;;;60.25;14.63;;;;;;;-149.78;100.00;50686.59;5118837;27;20092;-73
2021/12/20 07:28:47;;;;;;;44.50;12.82;;;;;;;-149.78;100.00;50667.03;5117440;27;20031;-73
2021/12/20 07:31:14;;;;;;;48.03;12.98;;;;;;;-149.78;100.00;50688.53;5101526;27;20042;-73
2021/12/20 07:33:40;;;;;;;38.38;10.57;;;;;;;-149.78;100.00;50663.13;5132152;27;20050;-73
2021/12/20 07:36:06;;;;;;;35.28;10.32;;;;;;;-149.78;100.00;50684.63;5147164;27;20094;-73
2021/12/20 07:38:32;;;;;;;39.28;10.18;;;;;;;-149.78;100.00;50717.88;5140337;27;20027;-73
2021/12/20 07:40:58;;;;;;;35.25;9.73;;;;;;;-149.78;100.00;50706.16;5142520;27;20028;-73
2021/12/20 07:43:24;;;;;;;42.60;11.35;;;;;;;-149.78;100.00;50667.03;5129579;27;20053;-72
2021/12/20 07:45:50;;;;;;;45.75;11.25;;;;;;;-149.78;100.00;50686.59;5152471;27;20122;-73
2021/12/20 07:48:17;;;;;;;38.80;10.18;;;;;;;-149.78;100.00;50682.66;5135512;27;20496;-77
2021/12/20 07:50:44;;;;;;;44.33;11.32;;;;;;;-149.78;100.00;50698.31;5127662;27;20039;-76
2021/12/20 07:53:10;;;;;;;48.92;10.52;;;;;;;-149.78;100.00;50651.38;5133021;27;20026;-74
2021/12/20 07:55:36;;;;;;;56.00;12.10;;;;;;;-149.78;100.00;50674.84;5115015;27;20426;-74
2021/12/20 07:58:02;;;;;;;38.45;10.18;;;;;;;-149.78;100.00;50643.56;5118017;27;20034;-80
2021/12/20 08:00:28;;;;;;;44.88;11.27;;;;;;;-149.78;100.00;50678.75;5110466;27;20038;-72
2021/12/20 08:02:56;;;;;;;42.03;11.25;;;;;;;-149.78;100.00;50663.13;5097570;28;20428;-75
2021/12/20 08:05:23;;;;;;;46.58;11.68;;;;;;;-149.78;100.00;50704.19;5111118;27;20377;-73
2021/12/20 08:07:50;;;;;;;41.47;11.23;;;;;;;-149.78;100.00;50678.75;5097859;27;20439;-73
2021/12/20 08:10:25;;;;;;;48.60;11.27;;;;;;;-149.78;100.00;50659.19;5146980;27;20652;-74
2021/12/20 08:12:51;;;;;;;42.92;13.02;;;;;;;-149.78;100.00;50690.50;5116791;27;20149;-74
2021/12/20 08:15:17;;;;;;;42.10;9.65;;;;;;;-149.78;100.00;50682.66;5120897;27;20035;-74
2021/12/20 08:17:43;;;;;;;37.88;10.32;;;;;;;-149.78;100.00;50678.75;5128962;27;20031;-73
2021/12/20 08:20:10;;;;;;;44.05;10.68;;;;;;;-149.78;100.00;50698.31;5128543;27;20438;-73
2021/12/20 08:22:37;;;;;;;41.92;11.13;;;;;;;-149.78;100.00;50688.53;5123724;27;20062;-76
2021/12/20 08:25:04;;;;;;;31.02;8.57;;;;;;;-149.78;100.00;50688.53;5115219;27;20054;-76
2021/12/20 08:27:30;;;;;;;28.15;8.57;;;;;;;-149.78;100.00;50680.72;5118598;27;20031;-78
2021/12/20 08:29:56;;;;;;;29.77;7.85;;;;;;;-149.78;100.00;50698.31;5141969;27;20370;-78
2021/12/20 08:32:21;;;;;;;31.13;8.35;;;;;;;-149.78;100.00;50713.97;5140258;27;20033;-77
2021/12/20 08:34:47;;;;;;;30.52;8.65;;;;;;;-149.78;100.00;50674.84;5135301;27;20054;-74
2021/12/20 08:37:13;;;;;;;25.35;7.22;;;;;;;-149.78;100.00;50706.16;5115637;27;20041;-75
2021/12/20 08:39:38;;;;;;;26.38;6.82;;;;;;;-149.78;100.00;50702.22;5148417;27;20031;-75
2021/12/20 08:42:06;;;;;;;24.92;7.20;;;;;;;-149.78;100.00;50698.31;5128357;27;20373;-74
2021/12/20 08:44:35;;;;;;;31.13;7.07;;;;;;;-149.78;100.00;50725.69;5129637;27;20111;-75
2021/12/20 08:47:02;;;;;;;22.75;7.00;;;;;;;-149.78;100.00;50678.75;5136911;27;20031;-75
2021/12/20 08:49:28;;;;;;;24.42;7.82;;;;;;;-149.78;100.00;50706.16;5128164;27;20023;-74
2021/12/20 08:51:55;;;;;;;28.90;7.50;;;;;;;-149.78;100.00;50670.94;5104130;27;20378;-75
2021/12/20 08:54:24;;;;;;;31.13;7.25;;;;;;;-149.78;100.00;50706.16;5134081;27;20086;-74
2021/12/20 08:56:51;;;;;;;27.27;7.40;;;;;;;-149.78;100.00;50700.28;5126956;27;20032;-74
2021/12/20 08:59:17;;;;;;;32.78;7.68;;;;;;;-149.78;100.00;50678.75;5135051;27;20031;-75
2021/12/20 09:01:43;;;;;;;32.88;7.90;;;;;;;-149.78;100.00;50690.50;5144084;27;20473;-74
2021/12/20 09:04:09;;;;;;;27.13;7.18;;;;;;;-149.78;100.00;50690.50;5116988;27;20115;-74
2021/12/20 09:06:39;;;;;;;24.55;7.13;;;;;;;-149.78;100.00;50663.13;5117104;27;20125;-75
2021/12/20 09:09:07;;;;;;;24.15;7.03;;;;;;;-149.78;100.00;50668.97;5125571;27;20462;-79
2021/12/20 09:11:33;;;;;;;23.60;7.10;;;;;;;-149.78;100.00;50670.94;5130637;27;20514;-76
2021/12/20 09:13:59;;;;;;;38.28;9.52;;;;;;;-149.78;100.00;50670.94;5121473;27;20496;-76
2021/12/20 09:16:25;;;;;;;43.88;11.15;;;;;;;-149.78;100.00;50684.63;5108418;27;20030;-75
2021/12/20 09:18:51;;;;;;;27.70;8.20;;;;;;;-149.78;100.00;50690.50;5144973;27;20431;-74
2021/12/20 09:21:17;;;;;;;38.40;9.70;;;;;;;-149.78;100.00;50688.53;5120338;27;20091;-73
2021/12/20 09:23:43;;;;;;;25.45;7.47;;;;;;;-149.78;100.00;50702.22;5141503;27;20027;-75
2021/12/20 09:26:09;;;;;;;24.90;8.05;;;;;;;-149.78;100.00;50684.63;5098570;27;20035;-76
2021/12/20 09:28:35;;;;;;;49.35;13.02;;;;;;;-149.78;100.00;50670.94;5134243;27;20417;-76
2021/12/20 09:31:03;;;;;;;29.35;8.40;;;;;;;-149.78;100.00;50674.84;5128056;27;20080;-76
2021/12/20 09:33:29;;;;;;;27.52;7.82;;;;;;;-149.78;100.00;50686.59;5140994;27;20117;-75
2021/12/20 09:35:54;;;;;;;26.85;8.45;;;;;;;-149.78;100.00;50659.19;5124537;27;20113;-74
2021/12/20 09:38:21;;;;;;;44.50;10.15;;;;;;;-149.78;100.00;50663.13;5129060;27;20488;-76
2021/12/20 09:41:59;;;;;;;34.00;8.80;;;;;;;-149.78;100.00;50700.28;5120870;27;21214;-75
2021/12/20 09:43:46;;;;;;;35.17;9.63;;;;;;;-149.78;100.00;50670.94;5130082;28;20439;-75
2021/12/20 09:46:13;;;;;;;47.20;13.02;;;;;;;-149.78;100.00;50678.75;5134107;28;20031;-76
2021/12/20 09:48:43;;;;;;;30.83;8.73;;;;;;;-149.78;100.00;50704.19;5108686;27;20080;-77
2021/12/20 09:51:08;;;;;;;33.53;8.45;;;;;;;-149.78;100.00;50710.06;5121115;28;20035;-77
2021/12/20 09:53:34;;;;;;;39.58;10.25;;;;;;;-149.78;100.00;50690.50;5109364;28;20032;-77
2021/12/20 09:56:00;;;;;;;38.80;10.55;;;;;;;-149.78;100.00;50710.06;5124403;27;20035;-76
2021/12/20 09:58:27;;;;;;;37.95;10.55;;;;;;;-149.78;100.00;50676.81;5081394;28;20054;-76
2021/12/20 10:00:54;;;;;;;49.65;13.68;;;;;;;-149.78;100.00;50682.66;5121516;27;20019;-76
2021/12/20 10:03:26;;;;;;;33.92;8.60;;;;;;;-149.78;100.00;50686.59;5100962;28;20031;-76
2021/12/20 10:05:56;;;;;;;31.98;9.95;;;;;;;-149.78;100.00;50667.03;5137024;28;20063;-76
2021/12/20 10:08:32;;;;;;;15.00;4.93;;;;;;;-149.78;100.00;50690.50;5121224;28;20038;-77
2021/12/20 10:11:03;;;;;;;24.42;5.75;;;;;;;-149.78;100.00;50674.84;5138706;28;20031;-77
2021/12/20 10:13:30;;;;;;;28.33;6.28;;;;;;;-149.78;100.00;50674.84;5135953;28;20033;-76
2021/12/20 10:15:57;;;;;;;22.30;5.85;;;;;;;-149.78;100.00;50684.63;5120161;28;20031;-76
2021/12/20 10:18:25;;;;;;;26.30;7.10;;;;;;;-149.78;100.00;50710.06;5138032;28;20493;-77
2021/12/20 10:20:56;;;;;;;41.60;11.23;;;;;;;-149.78;100.00;50670.94;5118621;28;20479;-76
2021/12/20 10:23:24;;;;;;;28.20;7.75;;;;;;;-149.78;100.00;50713.97;5122555;27;20474;-76
2021/12/20 10:25:56;;;;;;;26.15;7.85;;;;;;;-149.78;100.00;50713.97;5139882;27;20054;-76
2021/12/20 10:28:25;;;;;;;22.80;6.78;;;;;;;-149.78;100.00;50670.94;5140268;27;20065;-76
2021/12/20 10:30:56;;;;;;;23.38;6.38;;;;;;;-149.78;100.00;50717.88;5141522;27;20475;-77
2021/12/20 10:33:23;;;;;;;30.98;6.05;;;;;;;-149.78;100.00;50670.94;5139958;27;20054;-77
2021/12/20 10:35:54;;;;;;;22.30;6.18;;;;;;;-149.78;100.00;50688.53;5139262;27;20031;-76
2021/12/20 10:38:40;;;;;;;18.88;6.90;;;;;;;-149.78;100.00;50682.66;5139580;27;20035;-76
2021/12/20 10:41:24;;;;;;;29.38;6.40;;;;;;;-149.78;100.00;50706.16;5139268;27;20161;-76
2021/12/20 10:43:58;;;;;;;26.33;7.05;;;;;;;-149.78;100.00;50682.66;5119843;27;20031;-76
2021/12/20 10:46:27;;;;;;;23.05;6.55;;;;;;;-149.78;100.00;50698.31;5138379;27;20545;-76
2021/12/20 10:48:59;;;;;;;21.30;6.25;;;;;;;-149.78;100.00;50682.66;5138320;27;20027;-76
2021/12/20 10:51:28;;;;;;;24.97;6.87;;;;;;;-149.78;100.00;50678.75;5140505;27;20031;-76
2021/12/20 10:54:02;;;;;;;31.45;8.85;;;;;;;-149.78;100.00;50667.03;5137980;27;20077;-76
2021/12/20 10:56:33;;;;;;;34.65;9.73;;;;;;;-149.78;100.00;50659.19;5138618;27;20164;-76
2021/12/20 10:59:02;;;;;;;31.27;9.38;;;;;;;-149.78;100.00;50684.63;5140043;27;20031;-77
2021/12/20 11:04:26;;;;;;;25.95;7.13;;;;;;;-149.78;100.00;50651.38;5137983;27;20038;-76
2021/12/20 11:09:25;;;;;;;29.38;8.90;;;;;;;-149.78;100.00;50690.50;5137605;27;20032;-76
2021/12/20 11:11:59;;;;;;;30.10;8.48;;;;;;;-149.78;100.00;50700.28;5139215;27;20035;-77